Time;durP1;ratioP1;P1;durP2;ratioP2;P2;SDS_P1;SDS_P2;PMS_P1;PMS_P2;Temp;Humidity;BMP_temperature;BMP_pressure;BME280_temperature;BME280_humidity;BME280_pressure;Samples;Min_cycle;Max_cycle;Signal;HPM_P1;HPM_P2
2023/06/17 00:00:07;;;;;;;0.25;0.20;;;;;;;17.82;55.88;99401.63;5073835;28;20282;-72
2023/06/17 00:02:35;;;;;;;0.20;0.20;;;;;;;17.77;56.09;99390.72;5057172;28;20047;-71
2023/06/17 00:05:02;;;;;;;0.20;0.20;;;;;;;17.73;55.96;99393.38;5068518;28;20059;-70
2023/06/17 00:07:30;;;;;;;0.20;0.20;;;;;;;17.72;55.32;99395.31;5058907;28;20583;-72
2023/06/17 00:09:57;;;;;;;0.20;0.20;;;;;;;17.73;54.79;99396.13;5083204;28;20051;-70
2023/06/17 00:12:31;;;;;;;0.10;0.10;;;;;;;17.70;55.39;99405.06;5072228;28;20135;-72
2023/06/17 00:15:01;;;;;;;0.20;0.20;;;;;;;17.66;55.38;99395.81;5080723;28;20044;-72
2023/06/17 00:17:32;;;;;;;0.20;0.20;;;;;;;17.66;55.44;99393.88;5064862;28;20040;-71
2023/06/17 00:20:05;;;;;;;0.20;0.20;;;;;;;17.61;56.62;99390.50;5077680;28;20036;-72
2023/06/17 00:22:34;;;;;;;0.20;0.20;;;;;;;17.60;56.29;99403.50;5062857;28;20040;-72
2023/06/17 00:25:00;;;;;;;0.20;0.20;;;;;;;17.60;56.24;99394.41;5056405;28;20423;-72
2023/06/17 00:27:26;;;;;;;0.10;0.10;;;;;;;17.60;55.96;99395.19;5049595;28;20512;-71
2023/06/17 00:29:53;;;;;;;0.20;0.20;;;;;;;17.60;54.24;99400.72;5049384;28;20049;-73
2023/06/17 00:32:20;;;;;;;0.20;0.20;;;;;;;17.58;54.76;99400.25;5054610;28;20048;-73
2023/06/17 00:34:46;;;;;;;0.20;0.20;;;;;;;17.57;55.57;99410.50;5053951;28;20139;-74
2023/06/17 00:37:14;;;;;;;0.13;0.13;;;;;;;17.53;56.08;99400.44;5061413;28;20053;-73
2023/06/17 00:39:40;;;;;;;0.20;0.20;;;;;;;17.49;55.42;99403.06;5058962;28;20127;-74
2023/06/17 00:42:07;;;;;;;0.10;0.10;;;;;;;17.48;55.69;99400.59;5058030;28;20140;-73
2023/06/17 00:44:33;;;;;;;;;;;;;;;17.41;55.85;99410.25;5058120;28;20036;-71
2023/06/17 00:47:00;;;;;;;0.20;0.20;;;;;;;17.39;55.74;99411.69;5064923;28;19930;-73
2023/06/17 00:49:34;;;;;;;0.10;0.10;;;;;;;17.36;54.65;99410.44;5075211;28;20201;-74
2023/06/17 00:52:04;;;;;;;0.20;0.20;;;;;;;17.38;55.77;99407.31;5063434;28;20118;-72
2023/06/17 00:54:32;;;;;;;0.20;0.20;;;;;;;17.42;55.94;99411.06;5027661;28;20430;-72
2023/06/17 00:56:59;;;;;;;0.20;0.20;;;;;;;17.48;55.97;99412.50;5071103;28;20048;-73
2023/06/17 00:59:25;;;;;;;0.10;0.10;;;;;;;17.52;55.69;99409.88;5071284;28;20047;-74
2023/06/17 01:01:51;;;;;;;0.20;0.20;;;;;;;17.53;55.50;99414.25;5063267;28;20045;-73
2023/06/17 01:04:18;;;;;;;0.20;0.20;;;;;;;17.53;55.88;99417.81;5040019;28;20044;-73
2023/06/17 01:06:50;;;;;;;0.20;0.20;;;;;;;17.53;55.52;99417.03;5062201;28;20049;-74
2023/06/17 01:09:23;;;;;;;0.10;0.10;;;;;;;17.54;55.63;99410.34;5041977;28;20047;-73
2023/06/17 01:11:55;;;;;;;0.10;0.10;;;;;;;17.55;53.88;99411.97;5074353;28;20052;-74
2023/06/17 01:14:21;;;;;;;0.30;0.30;;;;;;;17.55;55.37;99414.75;5059499;28;20052;-73
2023/06/17 01:16:50;;;;;;;0.50;0.20;;;;;;;17.55;55.75;99415.53;5060163;28;20052;-73
2023/06/17 01:19:22;;;;;;;0.20;0.20;;;;;;;17.50;55.55;99412.97;5023966;28;20459;-74
2023/06/17 01:21:51;;;;;;;0.20;0.20;;;;;;;17.40;55.37;99394.81;5060000;28;20071;-73
2023/06/17 01:24:28;;;;;;;0.13;0.13;;;;;;;17.50;55.27;99412.16;5059037;28;20080;-72
2023/06/17 01:26:56;;;;;;;0.20;0.20;;;;;;;17.49;55.43;99407.78;5060640;28;20053;-73
2023/06/17 01:29:23;;;;;;;0.20;0.20;;;;;;;17.51;55.54;99411.81;5063532;28;20588;-72
2023/06/17 01:31:50;;;;;;;0.20;0.20;;;;;;;17.53;54.02;99411.50;5055403;28;20044;-73
2023/06/17 01:34:19;;;;;;;0.20;0.20;;;;;;;17.56;53.57;99410.84;5064536;28;20105;-74
2023/06/17 01:36:47;;;;;;;0.10;0.10;;;;;;;17.58;54.54;99408.53;5062926;28;20569;-75
2023/06/17 01:39:17;;;;;;;0.20;0.20;;;;;;;17.63;55.87;99410.31;5078166;28;20044;-73
2023/06/17 01:41:49;;;;;;;0.20;0.20;;;;;;;17.70;55.32;99416.94;5062714;28;20404;-72
2023/06/17 01:44:16;;;;;;;0.10;0.10;;;;;;;17.74;55.77;99417.09;5033256;28;20062;-72
2023/06/17 01:46:43;;;;;;;0.28;0.28;;;;;;;17.76;55.51;99414.00;5074064;28;20127;-73
2023/06/17 01:49:09;;;;;;;0.20;0.20;;;;;;;17.79;55.26;99416.91;5069940;28;20050;-72
2023/06/17 01:51:38;;;;;;;0.28;0.28;;;;;;;17.82;55.46;99419.00;5073086;28;20356;-73
2023/06/17 01:54:04;;;;;;;0.20;0.20;;;;;;;17.80;54.63;99407.47;5062465;28;20696;-73
2023/06/17 01:56:32;;;;;;;0.20;0.20;;;;;;;17.85;54.66;99415.56;5062262;28;20056;-72
2023/06/17 01:58:59;;;;;;;0.20;0.20;;;;;;;17.88;52.81;99424.38;5079094;28;20075;-73
2023/06/17 02:01:26;;;;;;;0.20;0.20;;;;;;;17.85;54.92;99425.84;5065188;28;20049;-73
2023/06/17 02:03:52;;;;;;;0.20;0.20;;;;;;;17.87;53.78;99420.78;5067805;28;20055;-74
2023/06/17 02:06:18;;;;;;;0.20;0.20;;;;;;;17.90;54.58;99413.78;5060450;28;20160;-72
2023/06/17 02:08:45;;;;;;;0.20;0.20;;;;;;;17.97;54.36;99425.09;5064170;28;20051;-74
2023/06/17 02:11:11;;;;;;;0.20;0.20;;;;;;;17.97;53.09;99419.56;5063219;28;20515;-72
2023/06/17 02:13:39;;;;;;;0.20;0.20;;;;;;;18.02;53.34;99416.66;5087936;28;20075;-74
2023/06/17 02:16:06;;;;;;;0.20;0.20;;;;;;;18.08;52.11;99420.03;5080121;28;20869;-74
2023/06/17 02:18:33;;;;;;;0.20;0.20;;;;;;;18.12;52.49;99423.78;5061295;28;20468;-73
2023/06/17 02:21:01;;;;;;;0.20;0.20;;;;;;;18.14;51.93;99432.53;5069121;28;20074;-73
2023/06/17 02:23:29;;;;;;;0.20;0.20;;;;;;;18.13;52.24;99431.72;5063760;28;20049;-73
2023/06/17 02:25:56;;;;;;;0.20;0.20;;;;;;;18.09;52.56;99428.00;5041490;28;20348;-72
2023/06/17 02:28:25;;;;;;;0.20;0.20;;;;;;;18.14;53.71;99443.59;5085755;28;20518;-73
2023/06/17 02:30:52;;;;;;;0.20;0.20;;;;;;;18.14;53.92;99433.34;5081003;28;20138;-73
2023/06/17 02:33:22;;;;;;;0.20;0.20;;;;;;;18.20;54.03;99435.94;5047513;28;20597;-73
2023/06/17 02:35:49;;;;;;;0.28;0.28;;;;;;;18.26;53.89;99438.16;5063666;28;20044;-75
2023/06/17 02:38:15;;;;;;;0.20;0.20;;;;;;;18.36;53.78;99441.66;5069548;28;20047;-74
2023/06/17 02:40:41;;;;;;;0.20;0.20;;;;;;;18.41;53.49;99445.06;5069687;28;20077;-72
2023/06/17 02:43:08;;;;;;;0.20;0.20;;;;;;;18.47;53.58;99440.13;5080116;28;20538;-73
2023/06/17 02:45:36;;;;;;;0.20;0.20;;;;;;;18.52;53.04;99444.66;5086040;28;20558;-73
2023/06/17 02:48:03;;;;;;;0.20;0.20;;;;;;;18.58;52.70;99440.53;5071070;28;20055;-72
2023/06/17 02:50:31;;;;;;;0.20;0.20;;;;;;;18.65;51.98;99434.44;5056461;28;20327;-73
2023/06/17 02:52:57;;;;;;;0.20;0.20;;;;;;;18.75;52.16;99436.81;5050012;28;20060;-72
2023/06/17 02:55:28;;;;;;;0.30;0.30;;;;;;;18.85;51.70;99436.38;5061474;28;20559;-74
2023/06/17 02:57:56;;;;;;;0.43;0.28;;;;;;;18.96;51.26;99436.78;5060811;28;20575;-71
2023/06/17 03:00:24;;;;;;;0.20;0.20;;;;;;;19.08;51.31;99433.28;5062247;28;20053;-72
2023/06/17 03:02:51;;;;;;;0.20;0.20;;;;;;;19.20;50.32;99434.44;5064881;28;20488;-73
2023/06/17 03:05:18;;;;;;;0.30;0.30;;;;;;;19.26;50.20;99441.41;5062516;28;20044;-72
2023/06/17 03:07:46;;;;;;;0.20;0.20;;;;;;;19.33;49.88;99435.31;5025102;28;20195;-73
2023/06/17 03:10:14;;;;;;;0.20;0.20;;;;;;;19.42;49.27;99436.00;5059887;28;20135;-73
2023/06/17 03:12:45;;;;;;;0.20;0.20;;;;;;;19.48;49.36;99433.81;5065519;28;20141;-72
2023/06/17 03:15:13;;;;;;;0.20;0.20;;;;;;;19.53;48.76;99441.94;5077654;28;20403;-73
2023/06/17 03:17:40;;;;;;;0.20;0.20;;;;;;;19.60;49.51;99438.59;5067425;28;20147;-73
2023/06/17 03:20:08;;;;;;;0.30;0.30;;;;;;;19.66;47.89;99435.22;5062200;28;20063;-72
2023/06/17 03:22:34;;;;;;;0.22;0.22;;;;;;;19.70;47.52;99440.91;5061962;28;20411;-73
2023/06/17 03:25:03;;;;;;;0.20;0.20;;;;;;;19.72;47.61;99437.78;5067171;28;20044;-74
2023/06/17 03:27:31;;;;;;;0.30;0.30;;;;;;;19.73;47.99;99434.66;5057603;28;20033;-73
2023/06/17 03:29:57;;;;;;;0.30;0.30;;;;;;;19.75;47.42;99440.69;5042974;28;20064;-72
2023/06/17 03:32:24;;;;;;;0.20;0.20;;;;;;;19.77;47.86;99440.34;5064384;28;20431;-73
2023/06/17 03:34:50;;;;;;;0.20;0.20;;;;;;;19.82;48.04;99429.81;5046449;28;20529;-73
2023/06/17 03:37:17;;;;;;;0.20;0.20;;;;;;;19.88;47.88;99432.34;5064044;28;20055;-74
2023/06/17 03:39:43;;;;;;;0.30;0.30;;;;;;;19.92;47.14;99442.44;5065302;28;20098;-73
2023/06/17 03:42:14;;;;;;;0.30;0.30;;;;;;;19.97;47.62;99439.44;5083444;28;20531;-74
2023/06/17 03:44:40;;;;;;;0.30;0.30;;;;;;;20.02;47.72;99432.84;5083610;28;20044;-74
2023/06/17 03:47:06;;;;;;;0.30;0.30;;;;;;;20.02;47.06;99435.63;5073301;28;20435;-74
2023/06/17 03:49:33;;;;;;;0.30;0.30;;;;;;;20.05;46.94;99428.56;5035895;28;20044;-73
2023/06/17 03:52:00;;;;;;;0.20;0.20;;;;;;;20.08;47.12;99437.03;5064665;28;20071;-73
2023/06/17 03:54:27;;;;;;;0.20;0.20;;;;;;;20.13;47.21;99435.94;5077327;28;20045;-73
2023/06/17 03:56:56;;;;;;;0.30;0.30;;;;;;;20.16;47.06;99429.72;5059796;28;20044;-74
2023/06/17 03:59:24;;;;;;;0.20;0.20;;;;;;;20.20;47.24;99430.63;5031083;28;20044;-74
2023/06/17 04:01:50;;;;;;;0.30;0.30;;;;;;;20.27;47.48;99438.38;5056640;28;20048;-73
2023/06/17 04:04:16;;;;;;;0.30;0.30;;;;;;;20.35;47.39;99439.41;5043709;28;20049;-73
2023/06/17 04:06:43;;;;;;;0.20;0.20;;;;;;;20.40;46.82;99433.59;5070037;28;20044;-74
2023/06/17 04:09:11;;;;;;;0.30;0.30;;;;;;;20.43;46.27;99435.69;5041258;28;20520;-73
2023/06/17 04:11:37;;;;;;;0.20;0.20;;;;;;;20.47;48.35;99439.38;5050367;28;20110;-73
2023/06/17 04:14:03;;;;;;;0.20;0.20;;;;;;;20.52;48.16;99438.31;5062808;28;20302;-73
2023/06/17 04:16:33;;;;;;;0.28;0.28;;;;;;;20.56;46.60;99433.69;5057742;28;20091;-73
2023/06/17 04:19:01;;;;;;;0.30;0.30;;;;;;;20.61;46.56;99438.19;5064276;28;20051;-73
2023/06/17 04:21:28;;;;;;;0.20;0.20;;;;;;;20.67;46.35;99443.13;5070068;28;20143;-73
2023/06/17 04:23:54;;;;;;;0.20;0.20;;;;;;;20.71;46.07;99442.44;5056645;28;20126;-73
2023/06/17 04:26:20;;;;;;;0.20;0.20;;;;;;;20.75;46.23;99438.59;5038440;28;20091;-74
2023/06/17 04:28:47;;;;;;;0.20;0.20;;;;;;;20.82;46.19;99444.41;5051306;28;20050;-73
2023/06/17 04:31:15;;;;;;;0.30;0.30;;;;;;;20.90;45.45;99437.06;5060567;28;20052;-73
2023/06/17 04:33:43;;;;;;;0.30;0.30;;;;;;;20.96;45.48;99438.44;5070971;28;20147;-73
2023/06/17 04:36:10;;;;;;;0.20;0.20;;;;;;;21.01;45.45;99442.94;5062262;28;20083;-74
2023/06/17 04:38:39;;;;;;;0.30;0.30;;;;;;;21.09;45.06;99452.28;5061481;28;20442;-74
2023/06/17 04:41:06;;;;;;;0.30;0.30;;;;;;;21.14;44.90;99452.00;5048707;28;20112;-74
2023/06/17 04:43:36;;;;;;;0.20;0.20;;;;;;;21.22;44.55;99453.00;5066299;28;20542;-74
2023/06/17 04:46:04;;;;;;;0.20;0.20;;;;;;;21.28;44.94;99454.38;5067823;28;20064;-74
2023/06/17 04:48:32;;;;;;;0.20;0.20;;;;;;;21.34;44.29;99458.50;5063136;28;20062;-73
2023/06/17 04:51:00;;;;;;;0.30;0.30;;;;;;;21.38;44.17;99464.16;5034342;28;20047;-73
2023/06/17 04:53:26;;;;;;;0.20;0.20;;;;;;;21.42;44.22;99455.94;5063230;28;20044;-73
2023/06/17 04:55:53;;;;;;;0.20;0.20;;;;;;;21.46;43.51;99459.59;5060656;28;20051;-74
2023/06/17 04:58:19;;;;;;;;;;;;;;;21.53;44.79;99455.03;5059983;28;20131;-74
2023/06/17 05:00:49;;;;;;;0.30;0.30;;;;;;;21.63;43.96;99464.03;5058889;28;19967;-74
2023/06/17 05:03:19;;;;;;;0.30;0.30;;;;;;;21.68;43.65;99475.69;5055046;28;20094;-74
2023/06/17 05:05:46;;;;;;;0.30;0.30;;;;;;;21.75;43.26;99465.94;5054856;28;20112;-74
2023/06/17 05:08:14;;;;;;;0.20;0.20;;;;;;;21.76;43.13;99471.13;5044439;28;20136;-73
2023/06/17 05:10:41;;;;;;;0.20;0.20;;;;;;;21.76;43.00;99464.78;5055875;28;20483;-74
2023/06/17 05:13:07;;;;;;;0.30;0.30;;;;;;;21.89;42.87;99469.09;5013537;28;20048;-73
2023/06/17 05:15:34;;;;;;;0.20;0.20;;;;;;;21.95;42.44;99472.41;5031079;28;20140;-73
2023/06/17 05:18:00;;;;;;;0.20;0.20;;;;;;;22.01;42.84;99467.34;5064547;28;20044;-73
2023/06/17 05:20:27;;;;;;;0.20;0.20;;;;;;;22.02;42.12;99469.00;5086298;28;20162;-73
2023/06/17 05:22:53;;;;;;;0.30;0.30;;;;;;;22.06;41.69;99467.88;5060691;28;20049;-73
2023/06/17 05:25:20;;;;;;;0.20;0.20;;;;;;;22.11;41.69;99469.59;5021664;28;20066;-73
2023/06/17 05:27:46;;;;;;;0.30;0.30;;;;;;;22.19;41.03;99471.38;5068750;28;20109;-74
2023/06/17 05:30:13;;;;;;;0.20;0.20;;;;;;;22.23;41.43;99465.88;5041822;28;20048;-73
2023/06/17 05:32:42;;;;;;;0.20;0.20;;;;;;;22.23;41.43;99457.53;5035172;28;20040;-74
2023/06/17 05:35:08;;;;;;;0.30;0.30;;;;;;;22.33;41.10;99467.31;5053542;28;20090;-74
2023/06/17 05:37:35;;;;;;;0.30;0.30;;;;;;;22.37;41.23;99462.63;5057492;28;20045;-73
2023/06/17 05:40:04;;;;;;;0.30;0.30;;;;;;;22.44;40.95;99468.34;5065581;28;20709;-73
2023/06/17 05:42:33;;;;;;;0.30;0.30;;;;;;;22.49;40.52;99465.31;5036547;28;20083;-73
2023/06/17 05:44:59;;;;;;;0.30;0.30;;;;;;;22.54;39.99;99469.00;5043981;28;20044;-74
2023/06/17 05:47:30;;;;;;;0.30;0.30;;;;;;;22.60;39.32;99473.09;5054793;28;20048;-74
2023/06/17 05:49:56;;;;;;;0.20;0.20;;;;;;;22.67;40.00;99464.91;5064060;28;20044;-73
2023/06/17 05:52:24;;;;;;;0.20;0.20;;;;;;;22.74;39.03;99478.97;5062207;28;20053;-73
2023/06/17 05:54:51;;;;;;;0.20;0.20;;;;;;;22.80;38.64;99469.19;5041536;28;20047;-73
2023/06/17 05:57:17;;;;;;;0.30;0.30;;;;;;;22.86;38.59;99468.88;5064580;28;20477;-73
2023/06/17 05:59:45;;;;;;;0.30;0.30;;;;;;;22.89;37.84;99471.75;5063588;28;20504;-72
2023/06/17 06:02:11;;;;;;;0.30;0.30;;;;;;;22.92;37.19;99465.44;5062930;28;20074;-72
2023/06/17 06:04:37;;;;;;;0.30;0.30;;;;;;;23.03;36.70;99476.00;5060103;28;20102;-72
2023/06/17 06:07:04;;;;;;;0.30;0.30;;;;;;;23.07;36.47;99472.09;5065203;28;20510;-74
2023/06/17 06:09:30;;;;;;;0.20;0.20;;;;;;;23.09;36.47;99469.72;5064244;28;20067;-73
2023/06/17 06:11:56;;;;;;;0.30;0.30;;;;;;;23.13;36.44;99471.81;5062892;28;20113;-73
2023/06/17 06:14:22;;;;;;;0.30;0.30;;;;;;;23.09;36.31;99466.94;5063350;28;20050;-73
2023/06/17 06:16:51;;;;;;;0.30;0.30;;;;;;;23.17;36.27;99464.31;5037360;28;20055;-74
2023/06/17 06:19:18;;;;;;;0.30;0.30;;;;;;;23.23;35.77;99454.47;5062290;28;20055;-74
2023/06/17 06:21:44;;;;;;;0.20;0.20;;;;;;;23.25;35.63;99456.88;5062751;28;20060;-74
2023/06/17 06:24:10;;;;;;;0.30;0.30;;;;;;;23.34;35.75;99449.91;5061123;28;20044;-73
2023/06/17 06:26:39;;;;;;;0.30;0.30;;;;;;;23.54;35.64;99454.66;5019640;28;20552;-74
2023/06/17 06:29:07;;;;;;;0.30;0.30;;;;;;;23.78;35.17;99453.47;5044461;28;20131;-74
2023/06/17 06:31:33;;;;;;;0.30;0.30;;;;;;;23.99;34.63;99444.63;5043745;28;20620;-74
2023/06/17 06:34:01;;;;;;;;;;;;;;;24.24;34.32;99452.59;5055693;28;20052;-72
2023/06/17 06:36:27;;;;;;;0.30;0.30;;;;;;;24.49;33.71;99461.34;5062101;28;19995;-73
2023/06/17 06:38:54;;;;;;;0.30;0.30;;;;;;;24.71;33.07;99452.44;5060000;28;20063;-73
2023/06/17 06:41:20;;;;;;;0.35;0.35;;;;;;;24.85;32.36;99460.25;5046341;28;20419;-73
2023/06/17 06:43:55;;;;;;;0.30;0.30;;;;;;;25.02;31.74;99458.84;5045589;28;20820;-73
2023/06/17 06:46:23;;;;;;;0.30;0.30;;;;;;;25.22;30.89;99465.06;5064126;28;20048;-73
2023/06/17 06:48:50;;;;;;;0.30;0.30;;;;;;;25.28;30.17;99459.91;5064558;28;20058;-72
2023/06/17 06:51:18;;;;;;;0.30;0.30;;;;;;;25.31;30.79;99453.56;5059625;28;20110;-73
2023/06/17 06:53:44;;;;;;;0.30;0.30;;;;;;;25.48;30.15;99457.75;5042330;28;20527;-73
2023/06/17 06:56:10;;;;;;;0.30;0.30;;;;;;;25.57;30.64;99458.22;5051274;28;20040;-73
2023/06/17 06:58:38;;;;;;;0.30;0.30;;;;;;;25.58;30.86;99454.25;5060714;28;20148;-73
2023/06/17 07:01:05;;;;;;;0.30;0.30;;;;;;;25.49;30.79;99462.16;5046009;28;20048;-73
2023/06/17 07:03:32;;;;;;;0.30;0.30;;;;;;;25.52;30.98;99461.38;5054641;28;20154;-73
2023/06/17 07:05:58;;;;;;;0.30;0.30;;;;;;;25.81;30.70;99466.44;5054446;28;20044;-73
2023/06/17 07:08:26;;;;;;;0.30;0.30;;;;;;;26.17;30.03;99458.31;5082190;28;20143;-73
2023/06/17 07:10:53;;;;;;;0.30;0.30;;;;;;;26.44;30.15;99461.72;5074188;28;20048;-73
2023/06/17 07:13:21;;;;;;;0.30;0.30;;;;;;;26.56;30.37;99456.97;5037680;28;20471;-73
2023/06/17 07:15:49;;;;;;;0.30;0.30;;;;;;;26.39;30.67;99461.28;5039312;28;20037;-74
2023/06/17 07:18:15;;;;;;;0.30;0.30;;;;;;;26.45;31.25;99462.50;5042747;28;20083;-72
2023/06/17 07:20:42;;;;;;;0.30;0.30;;;;;;;26.67;31.37;99454.22;5033463;28;20049;-73
2023/06/17 07:23:08;;;;;;;0.30;0.30;;;;;;;26.86;31.15;99458.75;5042659;28;20049;-73
2023/06/17 07:25:36;;;;;;;0.30;0.30;;;;;;;26.99;30.36;99462.00;5061056;28;20262;-73
2023/06/17 07:28:03;;;;;;;0.30;0.30;;;;;;;27.18;29.09;99456.03;5053052;28;20080;-73
2023/06/17 07:30:29;;;;;;;0.40;0.40;;;;;;;27.42;28.88;99456.50;5060372;28;20144;-73
2023/06/17 07:32:56;;;;;;;;;;;;;;;27.48;28.86;99461.69;5074403;28;20048;-73
2023/06/17 07:35:22;;;;;;;0.38;0.38;;;;;;;27.29;28.75;99458.84;5065922;28;20034;-72
2023/06/17 07:37:50;;;;;;;0.30;0.30;;;;;;;27.37;28.19;99456.06;5032852;28;20091;-73
2023/06/17 07:40:17;;;;;;;0.40;0.40;;;;;;;27.71;28.13;99456.56;5049086;28;20534;-73
2023/06/17 07:42:44;;;;;;;0.30;0.30;;;;;;;28.00;27.32;99455.72;5060998;28;20259;-71
2023/06/17 07:45:11;;;;;;;0.30;0.30;;;;;;;27.83;27.74;99457.34;5054236;28;20047;-72
2023/06/17 07:47:37;;;;;;;0.30;0.30;;;;;;;27.41;28.19;99454.06;5058259;28;20048;-73
2023/06/17 07:50:05;;;;;;;0.40;0.40;;;;;;;27.60;27.91;99462.13;5041108;28;20463;-73
2023/06/17 07:52:34;;;;;;;0.30;0.30;;;;;;;28.35;27.12;99456.91;5060963;28;20065;-72
2023/06/17 07:55:02;;;;;;;0.30;0.30;;;;;;;28.38;27.36;99455.31;5059348;28;20044;-73
2023/06/17 07:57:30;;;;;;;0.40;0.40;;;;;;;28.15;27.50;99462.94;5040163;28;20586;-73
2023/06/17 07:59:58;;;;;;;0.40;0.40;;;;;;;28.22;26.56;99462.16;5035541;28;20143;-73
2023/06/17 08:02:24;;;;;;;0.40;0.40;;;;;;;28.50;25.97;99460.50;5024933;28;20409;-72
2023/06/17 08:04:50;;;;;;;0.43;0.43;;;;;;;28.70;26.11;99469.25;5058094;28;20139;-72
2023/06/17 08:07:16;;;;;;;0.40;0.40;;;;;;;29.24;24.96;99459.78;5062349;28;20059;-72
2023/06/17 08:09:43;;;;;;;0.40;0.40;;;;;;;29.65;23.86;99455.50;5059880;28;20056;-72
2023/06/17 08:12:09;;;;;;;0.40;0.40;;;;;;;29.83;24.62;99472.28;5066887;28;20058;-72
2023/06/17 08:14:35;;;;;;;0.30;0.30;;;;;;;29.92;23.79;99470.97;5069535;28;20427;-71
2023/06/17 08:17:03;;;;;;;0.30;0.30;;;;;;;29.42;24.55;99473.75;5063342;28;20798;-71
2023/06/17 08:19:29;;;;;;;0.30;0.30;;;;;;;28.97;25.15;99467.97;5060827;28;20037;-72
2023/06/17 08:21:56;;;;;;;0.40;0.40;;;;;;;28.71;25.34;99472.88;5062685;28;20565;-72
2023/06/17 08:24:24;;;;;;;0.40;0.40;;;;;;;28.71;25.41;99470.84;5062822;28;20469;-74
2023/06/17 08:26:50;;;;;;;0.40;0.40;;;;;;;28.70;25.46;99474.88;5036916;28;20036;-72
2023/06/17 08:29:17;;;;;;;0.30;0.30;;;;;;;28.36;25.79;99486.63;5057361;28;20052;-72
2023/06/17 08:31:45;;;;;;;0.30;0.30;;;;;;;27.96;26.52;99481.00;5060058;28;20121;-72
2023/06/17 08:34:13;;;;;;;0.40;0.40;;;;;;;27.74;26.46;99474.59;5045611;28;20523;-72
2023/06/17 08:36:41;;;;;;;0.30;0.30;;;;;;;27.47;26.65;99463.69;5052882;28;20045;-73
2023/06/17 08:39:08;;;;;;;0.40;0.40;;;;;;;27.68;26.45;99473.38;5061554;28;20066;-72
2023/06/17 08:41:38;;;;;;;0.50;0.50;;;;;;;28.83;24.57;99466.84;5063059;28;20049;-73
2023/06/17 08:44:06;;;;;;;0.50;0.50;;;;;;;30.12;23.12;99460.75;5048159;28;20113;-73
2023/06/17 08:46:32;;;;;;;0.50;0.50;;;;;;;31.23;22.58;99462.75;5052331;28;20037;-74
2023/06/17 08:48:59;;;;;;;0.50;0.50;;;;;;;31.97;21.39;99466.03;5050268;28;20049;-72
2023/06/17 08:51:28;;;;;;;0.60;0.60;;;;;;;32.53;20.64;99473.13;5052913;28;20057;-73
2023/06/17 08:53:55;;;;;;;0.50;0.50;;;;;;;32.70;20.10;99474.00;5048056;28;20147;-72
2023/06/17 08:56:21;;;;;;;0.60;0.60;;;;;;;32.45;20.28;99466.81;5051998;28;20139;-72
2023/06/17 08:58:49;;;;;;;0.50;0.50;;;;;;;32.35;20.57;99470.66;5023264;28;20411;-73
2023/06/17 09:01:17;;;;;;;0.50;0.50;;;;;;;32.53;20.66;99478.78;5059650;28;20053;-72
2023/06/17 09:03:43;;;;;;;0.40;0.40;;;;;;;32.24;20.96;99465.16;5045522;28;20053;-71
2023/06/17 09:06:26;;;;;;;0.30;0.30;;;;;;;31.15;22.26;99455.56;5050299;28;20048;-72
2023/06/17 09:08:55;;;;;;;0.50;0.50;;;;;;;30.04;23.18;99462.06;5045721;28;20056;-71
2023/06/17 09:11:22;;;;;;;0.40;0.40;;;;;;;29.39;24.11;99466.13;5048942;28;20515;-72
2023/06/17 09:13:50;;;;;;;0.40;0.40;;;;;;;29.09;24.49;99461.09;5055289;28;20059;-71
2023/06/17 09:16:17;;;;;;;0.40;0.40;;;;;;;29.21;24.42;99457.00;5058340;28;20076;-72
2023/06/17 09:18:43;;;;;;;0.40;0.40;;;;;;;29.29;24.77;99459.34;5044045;28;20460;-71
2023/06/17 09:21:15;;;;;;;0.40;0.40;;;;;;;29.29;24.50;99467.78;5057899;28;20051;-70
2023/06/17 09:23:41;;;;;;;0.40;0.40;;;;;;;29.18;24.84;99466.25;5051565;28;20511;-72
2023/06/17 09:26:08;;;;;;;0.50;0.50;;;;;;;29.36;24.71;99471.78;5041857;28;20053;-72
2023/06/17 09:28:35;;;;;;;0.70;0.70;;;;;;;29.75;23.67;99472.75;5064104;28;20070;-72
2023/06/17 09:31:03;;;;;;;0.70;0.70;;;;;;;31.21;22.49;99470.03;5074860;28;20051;-73
2023/06/17 09:33:30;;;;;;;0.70;0.70;;;;;;;32.79;20.49;99474.22;5060052;28;20391;-72
2023/06/17 09:35:59;;;;;;;0.82;0.82;;;;;;;33.83;19.69;99466.66;5043369;28;20103;-71
2023/06/17 09:38:26;;;;;;;0.90;0.90;;;;;;;35.10;18.51;99468.91;5039589;28;20249;-73
2023/06/17 09:40:53;;;;;;;;;;;;;;;35.91;17.78;99454.56;5056072;28;20079;-71
2023/06/17 09:43:23;;;;;;;0.90;0.90;;;;;;;36.32;17.49;99459.69;5060811;28;19925;-72
2023/06/17 09:45:54;;;;;;;0.90;0.90;;;;;;;36.63;17.17;99452.50;5057873;28;20071;-72
2023/06/17 09:48:24;;;;;;;0.80;0.80;;;;;;;37.14;16.61;99451.41;5043910;28;20130;-72
2023/06/17 09:50:56;;;;;;;0.50;0.50;;;;;;;37.18;16.09;99450.00;5062209;28;20044;-74
2023/06/17 09:53:27;;;;;;;0.98;0.98;;;;;;;35.75;17.44;99449.84;5042491;28;20057;-73
2023/06/17 09:55:56;;;;;;;0.88;0.88;;;;;;;35.63;17.68;99450.66;5062969;28;20052;-72
2023/06/17 09:58:26;;;;;;;0.77;0.77;;;;;;;35.81;17.09;99455.72;5059669;28;20052;-72
2023/06/17 10:00:52;;;;;;;0.90;0.90;;;;;;;35.74;17.20;99458.81;5063907;28;20048;-72
2023/06/17 10:03:20;;;;;;;1.08;1.08;;;;;;;36.51;16.51;99451.28;5058730;28;20576;-74
2023/06/17 10:05:52;;;;;;;1.00;1.00;;;;;;;36.94;16.18;99444.00;4697003;28;10000663;-72
2023/06/17 10:08:19;;;;;;;1.10;1.10;;;;;;;37.29;15.79;99452.41;5042771;28;20048;-72
2023/06/17 10:10:47;;;;;;;1.10;1.10;;;;;;;37.45;15.68;99456.28;5055070;28;20076;-73
2023/06/17 10:13:16;;;;;;;0.80;0.80;;;;;;;37.68;15.71;99452.09;5059478;28;20344;-72
2023/06/17 10:15:44;;;;;;;0.80;0.80;;;;;;;36.51;16.07;99454.91;5044148;28;20295;-73
2023/06/17 10:18:12;;;;;;;0.60;0.60;;;;;;;35.67;17.28;99454.16;5061027;28;20532;-71
2023/06/17 10:20:40;;;;;;;1.10;1.10;;;;;;;35.68;16.92;99458.59;5058999;28;20099;-71
2023/06/17 10:23:06;;;;;;;1.10;1.10;;;;;;;36.48;15.81;99456.66;5063604;28;20044;-73
2023/06/17 10:25:33;;;;;;;1.10;1.10;;;;;;;36.81;15.79;99458.31;5063502;28;20083;-72
2023/06/17 10:28:02;;;;;;;1.10;1.10;;;;;;;37.15;15.23;99464.38;5072402;28;20102;-72
2023/06/17 10:30:29;;;;;;;1.10;1.10;;;;;;;37.28;15.48;99459.38;5067069;28;20480;-74
2023/06/17 10:32:59;;;;;;;0.50;0.50;;;;;;;36.14;16.46;99461.13;5061468;28;20473;-72
2023/06/17 10:35:37;;;;;;;1.10;1.10;;;;;;;35.08;17.16;99453.59;5080465;28;20433;-75
2023/06/17 10:38:03;;;;;;;0.63;0.63;;;;;;;34.33;18.38;99456.06;5062936;28;20041;-74
2023/06/17 10:40:35;;;;;;;1.00;1.00;;;;;;;34.01;18.41;99465.44;5063781;28;20048;-73
2023/06/17 10:43:18;;;;;;;1.00;1.00;;;;;;;34.98;17.70;99455.47;5065395;28;20052;-73
2023/06/17 10:45:49;;;;;;;1.35;1.25;;;;;;;35.91;16.29;99451.72;5027013;28;20106;-72
2023/06/17 10:48:20;;;;;;;0.75;0.75;;;;;;;37.09;15.93;99454.88;5060181;28;20606;-71
2023/06/17 10:50:51;;;;;;;0.60;0.60;;;;;;;35.82;16.66;99454.47;5060874;28;20411;-73
2023/06/17 10:53:17;;;;;;;0.57;0.57;;;;;;;34.00;18.26;99449.69;5061018;28;20064;-72
2023/06/17 10:55:45;;;;;;;0.60;0.60;;;;;;;32.93;19.34;99458.97;5027058;28;20095;-73
2023/06/17 10:58:12;;;;;;;0.50;0.50;;;;;;;32.17;19.85;99451.97;5031931;28;20049;-72
2023/06/17 11:00:38;;;;;;;0.60;0.60;;;;;;;31.54;20.65;99451.41;5051327;28;20374;-72
2023/06/17 11:03:05;;;;;;;0.50;0.50;;;;;;;31.04;20.92;99450.06;5040356;28;20071;-71
2023/06/17 11:05:36;;;;;;;1.10;1.10;;;;;;;31.15;20.77;99455.56;5043875;28;20072;-71
2023/06/17 11:08:02;;;;;;;1.20;1.10;;;;;;;32.71;19.69;99436.00;5063773;28;20060;-71
2023/06/17 11:10:28;;;;;;;1.17;1.17;;;;;;;34.79;17.67;99446.69;5059734;28;20041;-72
2023/06/17 11:12:55;;;;;;;1.10;1.10;;;;;;;35.99;17.01;99449.41;5055841;28;20055;-71
2023/06/17 11:15:22;;;;;;;1.05;1.05;;;;;;;36.40;16.79;99446.78;5061876;28;20044;-73
2023/06/17 11:17:58;;;;;;;1.10;1.10;;;;;;;36.72;16.25;99450.50;5047535;28;20045;-72
2023/06/17 11:20:24;;;;;;;;;;;;;;;37.02;15.91;99459.56;5057941;28;20522;-73
2023/06/17 11:22:51;;;;;;;;;;;;;;;36.58;16.54;99459.59;5079769;28;19966;-73
2023/06/17 11:25:18;;;;;;;0.60;0.60;;;;;;;35.35;17.10;99453.13;5058625;28;20288;-74
2023/06/17 11:27:45;;;;;;;0.70;0.70;;;;;;;33.96;18.00;99441.22;5058998;28;20052;-73
2023/06/17 11:30:13;;;;;;;0.50;0.50;;;;;;;32.80;18.86;99456.00;5058984;28;20075;-73
2023/06/17 11:32:41;;;;;;;0.50;0.50;;;;;;;31.91;19.39;99457.25;5056672;28;20063;-74
2023/06/17 11:35:09;;;;;;;0.50;0.50;;;;;;;31.53;19.56;99461.09;5058989;28;20045;-73